Latest Weather Observations for Young

IDN60801

Issued at 7:02 am EST Friday 4 September 2015 (issued every 30 minutes, with the page automatically refreshed every 10 minutes)

About weather observations | Map of weather stations | Latest weather observations for NSW | Other Formats
Station Details ID: 073138 Name: YOUNG AIRPORT Lat: -34.25 Lon: 148.25 Height: 379.6 m
Data from the previous 72 hours. | See also: Recent months at Young
Date/Time
EST
Temp
°C
App
Temp
°C
Dew
Point
Rel
Hum
%
Delta-T
°C
Wind Press
QNH
hPa
Press
MSL
hPa
Rain
since 9 am
mm
Dir
 
Spd
km/h
Gust
km/h
Spd
kts
Gust
kts
04/07:00am 1.8 -1.2 1.7 99 0.0 SW 7 9 4 5 1021.7 1021.9 2.4
04/06:30am 0.8 -1.5 0.7 99 0.0 SSE 2 7 1 4 1021.5 1021.7 2.4
04/06:00am 0.7 -2.0 0.6 99 0.0 S 4 7 2 4 1021.3 1021.5 2.4
04/05:30am 1.0 -2.2 0.9 99 0.0 SSW 7 7 4 4 1020.8 1020.9 2.4
04/05:00am 1.6 -0.9 1.5 99 0.0 S 4 7 2 4 1020.6 1020.7 2.4
04/04:30am 0.9 -2.3 0.8 99 0.0 S 7 7 4 4 1020.3 1020.4 2.4
04/04:00am 1.3 -1.6 1.2 99 0.0 S 6 7 3 4 1020.0 1020.2 2.4
04/03:30am 1.7 -1.7 1.6 99 0.0 S 9 9 5 5 1019.6 1019.8 2.2
04/03:00am 1.6 -1.3 1.5 99 0.0 SSW 6 7 3 4 1019.5 1019.7 2.2
04/02:30am 1.5 -1.6 1.4 99 0.0 SSW 7 7 4 4 1019.2 1019.4 2.2
04/02:00am 2.0 -0.8 1.9 99 0.0 SSW 6 9 3 5 1019.2 1019.4 2.2
04/01:30am 2.0 -1.0 1.9 99 0.0 SW 7 9 4 5 1019.4 1019.6 2.2
04/01:00am 2.9 1.0 2.8 99 0.0 SSW 2 7 1 4 1019.3 1019.5 2.2
04/12:30am 3.4 2.0 3.3 99 0.0 CALM 0 0 0 0 1018.9 1019.1 2.2
04/12:00am 3.3 1.8 3.2 99 0.0 CALM 0 7 0 4 1018.7 1018.8 2.2
 
Date/Time
EST
Temp
°C
App
Temp
°C
Dew
Point
Rel
Hum
%
Delta-T
°C
Wind Press
QNH
hPa
Press
MSL
hPa
Rain
since 9 am
mm
Dir
 
Spd
km/h
Gust
km/h
Spd
kts
Gust
kts
03/11:30pm 3.3 1.1 3.2 99 0.0 WSW 4 7 2 4 1018.7 1018.8 2.2
03/11:00pm 4.1 2.8 4.0 99 0.0 CALM 0 0 0 0 1018.5 1018.6 2.2
03/10:30pm 3.9 2.2 3.8 99 0.0 WSW 2 6 1 3 1018.1 1018.2 2.2
03/10:00pm 4.6 3.4 4.5 99 0.0 CALM 0 0 0 0 1017.7 1017.8 2.2
03/09:30pm 5.5 4.4 5.1 97 0.2 CALM 0 0 0 0 1017.2 1017.4 2.2
03/09:00pm 6.1 4.7 5.5 96 0.3 NW 2 7 1 4 1016.9 1017.1 2.2
03/08:30pm 7.2 6.4 6.6 96 0.3 CALM 0 0 0 0 1016.5 1016.6 2.2
03/08:00pm 8.5 6.3 7.7 95 0.4 SSW 9 13 5 7 1016.1 1016.2 2.2
03/07:30pm 9.0 7.2 7.9 93 0.5 SSW 7 15 4 8 1016.0 1016.1 2.2
03/07:00pm 9.6 7.4 7.9 89 0.8 SSW 9 13 5 7 1015.4 1015.5 2.2
03/06:30pm 9.8 7.5 7.6 86 1.1 SW 9 13 5 7 1014.8 1014.9 2.2
03/06:00pm 10.6 6.3 8.0 84 1.3 SW 20 28 11 15 1013.8 1013.9 2.2
03/05:30pm 10.5 5.8 7.7 83 1.4 SSW 22 33 12 18 1013.2 1013.3 2.2
03/05:00pm 10.9 6.3 8.0 82 1.4 SSW 22 28 12 15 1012.5 1012.6 2.2
03/04:30pm 10.8 6.1 7.7 81 1.5 SSW 22 32 12 17 1012.1 1012.1 2.2
03/04:00pm 10.5 6.5 8.4 87 1.0 SW 19 24 10 13 1011.4 1011.5 2.2
03/03:30pm 10.1 6.5 8.5 90 0.8 SW 17 24 9 13 1010.8 1010.9 2.2
03/03:00pm 9.8 5.9 8.6 92 0.6 SW 19 24 10 13 1010.3 1010.4 2.2
03/02:30pm 10.0 6.5 8.9 93 0.6 SW 17 24 9 13 1009.7 1009.7 2.2
03/02:00pm 9.7 7.7 8.6 93 0.5 WNW 9 15 5 8 1009.4 1009.4 1.6
03/01:30pm 9.5 6.3 8.3 92 0.6 W 15 24 8 13 1009.3 1009.3 0.8
03/01:00pm 10.1 7.3 8.4 89 0.8 WNW 13 20 7 11 1009.2 1009.2 0.0
03/12:30pm 10.9 7.5 7.6 80 1.6 W 15 24 8 13 1009.0 1009.1 0.0
03/12:00pm 10.9 7.1 7.4 79 1.7 WNW 17 26 9 14 1009.3 1009.3 0.0
03/11:30am 11.2 6.7 6.9 75 2.1 W 20 30 11 16 1009.3 1009.3 0.0
03/11:00am 10.9 7.4 7.4 79 1.7 WNW 15 24 8 13 1009.3 1009.3 0.0
03/10:30am 11.6 8.2 7.7 77 1.9 WNW 15 24 8 13 1008.9 1009.0 0.0
03/10:00am 11.0 7.2 7.5 79 1.7 WNW 17 26 9 14 1008.6 1008.7 0.0
03/09:30am 9.9 6.8 7.2 83 1.3 WNW 13 22 7 12 1008.4 1008.5 0.0
03/09:00am 9.3 6.3 7.7 90 0.8 NW 13 20 7 11 1008.3 1008.4 2.6
03/08:30am 9.2 7.1 8.3 94 0.4 WNW 9 19 5 10 1008.0 1008.1 2.6
03/08:00am 8.7 6.1 7.9 95 0.4 WNW 11 17 6 9 1007.7 1007.8 2.6
03/07:30am 8.2 5.2 7.8 97 0.2 WNW 13 19 7 10 1007.5 1007.5 2.6
03/07:00am 8.5 5.9 7.9 96 0.3 NW 11 17 6 9 1007.1 1007.1 2.6
03/06:30am 8.7 5.7 7.9 95 0.4 NW 13 19 7 10 1006.2 1006.3 2.6
03/06:00am 9.0 6.9 8.2 95 0.4 WNW 9 17 5 9 1006.0 1006.1 2.6
03/05:30am 8.9 6.9 8.5 97 0.2 NNW 9 11 5 6 1005.7 1005.8 2.6
03/05:00am 8.7 6.6 8.4 98 0.1 NW 9 13 5 7 1005.4 1005.5 2.6
03/04:30am 8.4 6.6 7.8 96 0.3 NW 7 11 4 6 1005.3 1005.3 2.4
03/04:00am 9.4 7.4 8.8 96 0.3 NW 9 15 5 8 1005.4 1005.5 2.4
03/03:30am 9.4 7.8 8.6 95 0.4 NW 7 11 4 6 1005.4 1005.5 2.4
03/03:00am 9.2 7.2 8.6 96 0.3 NNW 9 11 5 6 1005.7 1005.8 2.4
03/02:30am 9.1 7.4 8.3 95 0.4 NW 7 9 4 5 1005.7 1005.8 2.4
03/02:00am 9.5 6.7 8.7 95 0.4 N 13 15 7 8 1006.0 1006.1 2.4
03/01:30am 9.8 7.8 8.6 92 0.6 NNW 9 13 5 7 1006.2 1006.3 2.4
03/01:00am 9.9 7.8 8.2 89 0.8 N 9 15 5 8 1006.0 1006.1 2.4
03/12:30am 10.4 6.1 7.8 84 1.3 WSW 20 35 11 19 1005.0 1005.0 2.4
03/12:16am 10.4 5.8 8.0 85 1.2 WNW 22 35 12 19 1005.0 1005.0 2.4
03/12:00am 10.7 3.2 7.9 83 1.4 W 37 61 20 33 1004.6 1004.6 2.4
 
Date/Time
EST
Temp
°C
App
Temp
°C
Dew
Point
Rel
Hum
%
Delta-T
°C
Wind Press
QNH
hPa
Press
MSL
hPa
Rain
since 9 am
mm
Dir
 
Spd
km/h
Gust
km/h
Spd
kts
Gust
kts
02/11:52pm 10.8 2.6 8.2 84 1.3 WNW 41 72 22 39 1004.5 1004.5 2.4
02/11:39pm 10.7 2.9 8.1 84 1.3 NNW 39 70 21 38 1004.9 1004.9 2.4
02/11:30pm 10.8 4.3 8.2 84 1.3 N 32 59 17 32 1005.4 1005.5 2.4
02/11:26pm 11.3 5.8 9.2 87 1.1 N 28 59 15 32 1005.5 1005.6 2.4
02/11:00pm 11.4 7.6 9.1 86 1.2 NNE 19 28 10 15 1005.9 1006.0 1.8
02/10:30pm 11.6 8.5 9.0 84 1.3 ENE 15 20 8 11 1006.2 1006.3 1.8
02/10:00pm 11.0 9.2 9.3 89 0.9 E 9 19 5 10 1007.0 1007.0 1.8
02/09:30pm 10.9 8.7 9.5 91 0.7 SW 11 13 6 7 1007.3 1007.3 1.0
02/09:00pm 12.1 8.5 8.2 77 2.0 E 17 24 9 13 1006.5 1006.5 0.8
02/08:30pm 12.3 10.2 8.4 77 2.0 SE 9 19 5 10 1007.7 1007.8 0.6
02/08:00pm 12.6 10.8 8.1 74 2.3 SE 7 11 4 6 1006.9 1006.9 0.0
02/07:30pm 13.5 11.2 7.3 66 3.1 NE 9 15 5 8 1007.2 1007.2 0.0
02/07:00pm 13.0 10.0 7.9 71 2.6 ENE 13 17 7 9 1007.4 1007.4 0.0
02/06:30pm 13.7 11.3 7.2 65 3.2 NNE 9 13 5 7 1008.2 1008.3 0.0
02/06:00pm 14.2 10.7 7.0 62 3.6 NE 15 20 8 11 1007.6 1007.6 0.0
02/05:30pm 14.4 10.9 7.2 62 3.6 ENE 15 17 8 9 1008.0 1008.1 0.0
02/05:00pm 14.6 12.0 7.6 63 3.5 NE 11 15 6 8 1008.4 1008.5 0.0
02/04:30pm 15.6 12.1 7.1 57 4.3 NE 15 22 8 12 1008.6 1008.7 0.0
02/04:00pm 16.0 12.7 8.2 60 4.0 NE 15 24 8 13 1008.9 1009.0 0.0
02/03:30pm 16.9 12.7 8.3 57 4.5 NE 20 26 11 14 1009.7 1009.7 0.0
02/03:00pm 16.7 12.5 7.6 55 4.7 NE 19 24 10 13 1010.1 1010.2 0.0
02/02:30pm 16.6 12.4 5.9 49 5.3 NNE 17 24 9 13 1010.7 1010.8 0.0
02/02:00pm 16.3 12.3 6.7 53 4.8 NNE 17 26 9 14 1011.0 1011.1 0.0
02/01:30pm 16.4 12.5 7.3 55 4.6 NE 17 20 9 11 1011.4 1011.5 0.0
02/01:00pm 16.1 11.8 7.1 55 4.5 NE 19 22 10 12 1012.1 1012.1 0.0
02/12:30pm 15.5 11.9 6.8 56 4.3 NE 15 20 8 11 1012.8 1012.9 0.0
02/12:00pm 15.0 11.5 7.3 60 3.9 NNE 15 22 8 12 1013.6 1013.7 0.0
02/11:30am 14.1 9.5 6.5 60 3.7 NNE 20 30 11 16 1014.3 1014.5 0.0
02/11:00am 13.8 9.3 6.9 63 3.4 NNE 20 28 11 15 1015.1 1015.2 0.0
02/10:30am 12.4 8.5 7.1 70 2.6 NNE 17 22 9 12 1015.5 1015.6 0.0
02/10:00am 11.3 8.0 6.4 72 2.4 NNE 13 20 7 11 1016.2 1016.3 0.0
02/09:30am 10.6 7.8 6.9 78 1.8 NNE 11 15 6 8 1016.2 1016.3 0.0
02/09:00am 8.1 7.3 6.6 90 0.7 CALM 0 6 0 3 1016.5 1016.6 0.2
02/08:30am 6.5 4.4 5.9 96 0.3 SW 6 9 3 5 1016.6 1016.8 0.2
02/08:00am 3.4 0.8 3.3 99 0.0 SSE 6 7 3 4 1016.4 1016.5 0.2
02/07:30am 2.1 -0.7 2.0 99 0.0 S 6 7 3 4 1016.6 1016.8 0.2
02/07:00am 1.1 -1.9 1.0 99 0.0 S 6 7 3 4 1016.4 1016.5 0.0
02/06:30am 0.8 -2.4 0.7 99 0.0 S 7 9 4 5 1016.2 1016.3 0.0
02/06:00am 0.7 -2.3 0.6 99 0.0 S 6 7 3 4 1016.1 1016.2 0.0
02/05:30am 0.2 -3.1 0.1 99 0.0 S 7 7 4 4 1016.3 1016.4 0.0
02/05:00am -1.1 -4.4 -1.2 99 0.0 S 6 7 3 4 1016.1 1016.2 0.0
02/04:30am -0.7 -4.1 -0.8 99 0.0 SSW 7 7 4 4 1016.2 1016.3 0.0
02/04:00am -0.6 -3.8 -0.7 99 0.0 SSW 6 6 3 3 1016.0 1016.1 0.0
02/03:30am -0.2 -3.6 -0.3 99 0.0 SSW 7 9 4 5 1016.1 1016.2 0.0
02/03:00am -0.2 -3.6 -0.3 99 0.0 S 7 9 4 5 1016.5 1016.6 0.0
02/02:30am 0.0 -3.7 -0.1 99 0.0 SW 9 11 5 6 1016.7 1016.9 0.0
02/02:00am 0.1 -3.2 0.0 99 0.0 S 7 9 4 5 1017.0 1017.2 0.0
02/01:30am 0.2 -3.5 0.1 99 0.0 SW 9 9 5 5 1017.3 1017.5 0.0
02/01:00am 0.1 -3.0 0.0 99 0.0 SSW 6 7 3 4 1017.2 1017.4 0.0
02/12:30am 0.2 -2.9 -0.1 98 0.1 SSW 6 7 3 4 1017.2 1017.4 0.0
02/12:00am 0.5 -2.6 0.4 99 0.0 S 6 7 3 4 1017.5 1017.6 0.0
 
Date/Time
EST
Temp
°C
App
Temp
°C
Dew
Point
Rel
Hum
%
Delta-T
°C
Wind Press
QNH
hPa
Press
MSL
hPa
Rain
since 9 am
mm
Dir
 
Spd
km/h
Gust
km/h
Spd
kts
Gust
kts
01/11:30pm 0.8 -2.4 0.7 99 0.0 S 7 9 4 5 1017.1 1017.3 0.0
01/11:00pm 0.8 -2.4 0.7 99 0.0 SW 7 9 4 5 1017.0 1017.2 0.0
01/10:30pm 1.2 -2.3 1.1 99 0.0 S 9 11 5 6 1016.9 1017.1 0.0
01/10:00pm 1.6 -0.6 1.3 98 0.1 S 2 6 1 3 1017.0 1017.2 0.0
01/09:30pm 1.7 -1.4 1.4 98 0.1 SSW 7 9 4 5 1016.8 1017.0 0.0
01/09:00pm 2.2 -0.8 1.8 97 0.2 SW 7 9 4 5 1016.6 1016.8 0.0
01/08:30pm 2.5 0.8 2.1 97 0.2 CALM 0 0 0 0 1016.3 1016.4 0.0
01/08:00pm 3.7 1.1 3.3 97 0.2 S 6 7 3 4 1016.1 1016.2 0.0
01/07:30pm 3.8 0.9 2.8 93 0.4 SSW 7 7 4 4 1015.8 1015.9 0.0
01/07:00pm 4.8 2.5 3.0 88 0.8 SW 4 6 2 3 1015.8 1015.9 0.0
01/06:30pm 6.1 3.5 4.1 87 0.9 WSW 7 9 4 5 1015.6 1015.7 0.0
01/06:00pm 7.8 6.6 4.6 80 1.4 CALM 0 4 0 2 1015.3 1015.4 0.0
01/05:30pm 10.3 8.1 5.5 72 2.2 NW 6 9 3 5 1015.3 1015.4 0.0
01/05:00pm 12.1 9.4 5.5 64 3.1 WNW 9 13 5 7 1015.2 1015.3 0.0
01/04:30pm 13.0 10.1 4.9 58 3.8 W 9 13 5 7 1015.1 1015.2 0.0
01/04:00pm 13.3 10.6 5.5 59 3.7 WNW 9 13 5 7 1015.3 1015.4 0.0
01/03:30pm 13.4 10.7 5.6 59 3.7 WNW 9 13 5 7 1015.4 1015.5 0.0
01/03:00pm 13.0 9.4 4.9 58 3.8 WNW 13 19 7 10 1015.6 1015.7 0.0
01/02:30pm 13.1 10.3 6.9 66 3.1 WSW 11 17 6 9 1015.9 1016.0 0.0
01/02:00pm 12.8 8.8 5.0 59 3.7 WSW 15 24 8 13 1016.1 1016.2 0.0
01/01:30pm 12.5 8.6 5.4 62 3.4 WNW 15 24 8 13 1016.2 1016.3 0.0
01/01:00pm 12.1 8.6 5.5 64 3.1 WSW 13 19 7 10 1016.1 1016.2 0.0
01/12:30pm 11.9 8.8 5.5 65 3.0 W 11 20 6 11 1016.4 1016.5 0.0
01/12:00pm 11.7 8.9 5.1 64 3.1 W 9 19 5 10 1016.9 1017.1 0.0
01/11:30am 11.1 7.6 5.4 68 2.7 WSW 13 19 7 10 1017.3 1017.5 0.0
01/11:00am 10.5 7.2 4.4 66 2.8 W 11 17 6 9 1017.6 1017.7 0.0
01/10:30am 10.1 7.4 5.7 74 2.1 W 9 13 5 7 1017.7 1017.8 0.0
01/10:00am 9.0 6.4 7.9 93 0.5 N 11 17 6 9 1018.0 1018.1 0.0
01/09:30am 6.5 4.3 6.4 99 0.0 N 7 9 4 5 1018.0 1018.6 0.0
01/09:00am 3.6 1.1 3.5 99 0.0 N 6 9 3 5 1017.9 1018.5 0.2
01/08:30am 2.3 0.3 2.2 99 0.0 SSE 2 6 1 3 1017.6 1018.1 0.2
01/08:00am 1.2 -1.4 1.1 99 0.0 SSW 4 7 2 4 1017.5 1018.0 0.2
01/07:30am 0.4 -2.7 0.3 99 0.0 S 6 7 3 4 1017.0 1017.6 0.2

Other Formats:

Comma delimited format used in spreadsheet applications
http://www.bom.gov.au/fwo/IDN60801/IDN60801.94712.axf

JavaScript Object Notation format (JSON) in row-major order
http://www.bom.gov.au/fwo/IDN60801/IDN60801.94712.json